createdAt,value
2022-11-20T00:00:40.574Z,10.50
2022-11-20T00:03:07.115Z,9.48
2022-11-20T00:05:33.924Z,9.90
2022-11-20T00:08:00.539Z,9.00
2022-11-20T00:10:27.146Z,9.63
2022-11-20T00:12:53.822Z,8.65
2022-11-20T00:15:20.366Z,9.07
2022-11-20T00:17:48.269Z,8.57
2022-11-20T00:20:15.673Z,8.88
2022-11-20T00:22:42.238Z,9.57
2022-11-20T00:25:09.170Z,9.88
2022-11-20T00:27:35.747Z,9.07
2022-11-20T00:30:02.374Z,9.32
2022-11-20T00:32:28.950Z,11.10
2022-11-20T00:34:56.967Z,9.50
2022-11-20T00:37:23.616Z,10.55
2022-11-20T00:39:50.217Z,9.15
2022-11-20T00:42:16.861Z,9.65
2022-11-20T00:44:43.551Z,9.85
2022-11-20T00:47:10.128Z,9.02
2022-11-20T00:49:36.720Z,9.98
2022-11-20T00:52:04.979Z,9.60
2022-11-20T00:54:31.885Z,9.07
2022-11-20T00:56:58.497Z,9.18
2022-11-20T00:59:25.067Z,9.38
2022-11-20T01:01:51.640Z,9.32
2022-11-20T01:04:18.244Z,8.55
2022-11-20T01:06:44.848Z,10.10
2022-11-20T01:09:14.583Z,9.23
2022-11-20T01:11:43.500Z,9.50
2022-11-20T01:14:12.969Z,9.73
2022-11-20T01:16:41.605Z,9.77
2022-11-20T01:19:17.372Z,9.32
2022-11-20T01:21:46.466Z,9.98
2022-11-20T01:24:15.913Z,9.80
2022-11-20T01:26:43.892Z,8.88
2022-11-20T01:29:14.766Z,11.63
2022-11-20T01:31:41.413Z,8.95
2022-11-20T01:34:11.298Z,10.07
2022-11-20T01:36:39.248Z,9.32
2022-11-20T01:39:08.476Z,10.23
2022-11-20T01:41:36.502Z,9.88
2022-11-20T01:44:04.901Z,9.40
2022-11-20T01:46:32.939Z,10.50
2022-11-20T01:49:03.315Z,10.38
2022-11-20T01:51:34.271Z,9.82
2022-11-20T01:54:06.191Z,9.70
2022-11-20T01:56:39.898Z,9.23
2022-11-20T01:59:09.449Z,9.48
2022-11-20T02:01:36.059Z,10.50
2022-11-20T02:04:03.440Z,10.30
2022-11-20T02:06:35.182Z,9.60
2022-11-20T02:09:01.841Z,9.10
2022-11-20T02:11:31.227Z,10.60
2022-11-20T02:14:00.385Z,9.90
2022-11-20T02:16:30.108Z,10.05
2022-11-20T02:19:00.549Z,10.45
2022-11-20T02:21:37.341Z,10.65
2022-11-20T02:24:16.053Z,10.88
2022-11-20T02:26:49.078Z,10.45
2022-11-20T02:29:19.814Z,9.85
2022-11-20T02:31:47.039Z,10.63
2022-11-20T02:34:13.622Z,9.93
2022-11-20T02:36:43.320Z,10.85
2022-11-20T02:39:12.231Z,10.60
2022-11-20T02:41:40.267Z,10.38
2022-11-20T02:44:06.877Z,11.52
2022-11-20T02:46:33.548Z,10.65
2022-11-20T02:49:01.092Z,10.63
2022-11-20T02:51:27.738Z,10.80
2022-11-20T02:53:54.353Z,10.85
2022-11-20T02:56:21.066Z,11.13
2022-11-20T02:58:49.078Z,11.23
2022-11-20T03:01:15.891Z,10.65
2022-11-20T03:03:42.549Z,10.32
2022-11-20T03:06:09.288Z,11.07
2022-11-20T03:08:35.874Z,12.13
2022-11-20T03:11:06.889Z,11.60
2022-11-20T03:13:33.967Z,11.40
2022-11-20T03:16:08.033Z,12.07
2022-11-20T03:18:34.618Z,10.68
2022-11-20T03:21:01.361Z,11.70
2022-11-20T03:23:30.812Z,12.50
2022-11-20T03:25:57.500Z,10.85
2022-11-20T03:28:24.106Z,11.13
2022-11-20T03:30:50.664Z,11.18
2022-11-20T03:33:18.612Z,11.98
2022-11-20T03:35:45.144Z,11.45
2022-11-20T03:38:11.739Z,12.75
2022-11-20T03:40:38.404Z,12.63
2022-11-20T03:43:04.989Z,11.50
2022-11-20T03:45:31.525Z,11.27
2022-11-20T03:47:58.076Z,12.23
2022-11-20T03:50:26.012Z,11.57
2022-11-20T03:52:52.746Z,10.93
2022-11-20T03:55:19.320Z,12.98
2022-11-20T03:57:45.887Z,11.40
2022-11-20T04:00:13.991Z,11.45
2022-11-20T04:02:40.771Z,10.85
2022-11-20T04:05:07.791Z,12.90
2022-11-20T04:07:36.368Z,12.57
2022-11-20T04:10:03.762Z,12.18
2022-11-20T04:12:33.147Z,12.80
2022-11-20T04:14:59.689Z,12.10
2022-11-20T04:17:26.216Z,12.18
2022-11-20T04:19:52.816Z,12.43
2022-11-20T04:22:19.457Z,12.73
2022-11-20T04:24:47.363Z,11.73
2022-11-20T04:27:13.934Z,13.73
2022-11-20T04:29:40.492Z,12.88
2022-11-20T04:32:07.171Z,13.07
2022-11-20T04:34:33.885Z,12.88
2022-11-20T04:37:00.447Z,12.18
2022-11-20T04:39:27.085Z,11.55
2022-11-20T04:41:55.145Z,13.48
2022-11-20T04:44:21.728Z,12.82
2022-11-20T04:46:48.276Z,12.70
2022-11-20T04:49:15.381Z,12.88
2022-11-20T04:51:42.103Z,13.05
2022-11-20T04:54:09.458Z,11.88
2022-11-20T04:56:35.996Z,12.43
2022-11-20T04:59:04.001Z,12.75
2022-11-20T05:01:31.364Z,12.43
2022-11-20T05:03:58.016Z,13.20
2022-11-20T05:06:24.603Z,13.35
2022-11-20T05:08:51.366Z,12.80
2022-11-20T05:11:19.914Z,13.00
2022-11-20T05:13:46.571Z,13.88
2022-11-20T05:16:16.553Z,12.48
2022-11-20T05:18:43.730Z,13.38
2022-11-20T05:21:11.663Z,12.73
2022-11-20T05:23:38.420Z,13.48
2022-11-20T05:26:06.089Z,13.55
2022-11-20T05:28:34.756Z,12.90
2022-11-20T05:31:06.243Z,12.90
2022-11-20T05:33:35.406Z,12.02
2022-11-20T05:36:02.236Z,12.68
2022-11-20T05:38:28.805Z,12.75
2022-11-20T05:40:55.438Z,14.07
2022-11-20T05:43:22.001Z,17.52
2022-11-20T05:45:53.569Z,13.43
2022-11-20T05:48:20.096Z,13.90
2022-11-20T05:50:48.139Z,13.23
2022-11-20T05:53:14.707Z,13.55
2022-11-20T05:55:41.523Z,13.20
2022-11-20T05:58:08.199Z,13.00
2022-11-20T06:00:34.900Z,14.00
2022-11-20T06:03:01.506Z,11.68
2022-11-20T06:05:28.194Z,13.73
2022-11-20T06:07:56.132Z,13.23
2022-11-20T06:10:22.718Z,13.63
2022-11-20T06:12:49.271Z,13.40
2022-11-20T06:15:16.222Z,13.10
2022-11-20T06:17:42.767Z,13.05
2022-11-20T06:20:10.826Z,12.88
2022-11-20T06:22:37.399Z,13.45
2022-11-20T06:25:05.718Z,14.07
2022-11-20T06:27:32.269Z,15.18
2022-11-20T06:29:58.884Z,13.10
2022-11-20T06:32:25.557Z,13.80
2022-11-20T06:34:52.114Z,13.15
2022-11-20T06:37:18.690Z,13.75
2022-11-20T06:39:45.232Z,13.77
2022-11-20T06:42:13.274Z,13.23
2022-11-20T06:44:39.818Z,14.25
2022-11-20T06:47:06.416Z,13.80
2022-11-20T06:49:33.002Z,14.02
2022-11-20T06:51:59.595Z,13.27
2022-11-20T06:54:26.263Z,14.55
2022-11-20T06:56:52.816Z,14.75
2022-11-20T06:59:21.172Z,14.00
2022-11-20T07:01:47.885Z,14.60
2022-11-20T07:04:14.487Z,14.02
2022-11-20T07:06:41.111Z,13.98
2022-11-20T07:09:12.544Z,14.05
2022-11-20T07:11:39.496Z,14.40
2022-11-20T07:14:06.054Z,14.38
2022-11-20T07:16:34.391Z,14.38
2022-11-20T07:19:01.002Z,14.13
2022-11-20T07:21:27.612Z,14.52
2022-11-20T07:23:54.236Z,13.85
2022-11-20T07:26:20.806Z,14.52
2022-11-20T07:28:47.356Z,13.57
2022-11-20T07:31:18.785Z,13.57
2022-11-20T07:33:47.524Z,14.77
2022-11-20T07:36:14.109Z,14.82
2022-11-20T07:38:40.728Z,14.93
2022-11-20T07:41:07.293Z,14.73
2022-11-20T07:43:37.172Z,14.57
2022-11-20T07:46:06.394Z,14.33
2022-11-20T07:48:33.024Z,14.60
2022-11-20T07:51:01.049Z,13.23
2022-11-20T07:53:27.606Z,13.82
2022-11-20T07:55:54.253Z,13.20
2022-11-20T07:58:21.696Z,13.05
2022-11-20T08:00:48.286Z,14.05
2022-11-20T08:03:15.334Z,13.80
2022-11-20T08:05:43.673Z,13.15
2022-11-20T08:08:11.671Z,13.68
2022-11-20T08:10:38.312Z,14.05
2022-11-20T08:13:04.897Z,13.23
2022-11-20T08:15:31.907Z,13.10
2022-11-20T08:18:29.526Z,14.40
2022-11-20T08:20:49.330Z,13.05
2022-11-20T08:23:17.278Z,13.63
2022-11-20T08:25:43.829Z,13.45
2022-11-20T08:28:20.127Z,14.23
2022-11-20T08:30:47.236Z,13.45
2022-11-20T08:33:13.800Z,18.05
2022-11-20T08:35:40.422Z,20.70
2022-11-20T08:38:07.581Z,15.05
2022-11-20T08:40:35.545Z,15.80
2022-11-20T08:43:02.102Z,15.05
2022-11-20T08:45:33.780Z,13.68
2022-11-20T08:48:01.919Z,13.18
2022-11-20T08:50:28.640Z,13.77
2022-11-20T08:52:55.230Z,12.15
2022-11-20T08:55:21.937Z,13.82
2022-11-20T08:57:51.244Z,13.07
2022-11-20T09:00:18.285Z,13.15
2022-11-20T09:02:44.842Z,12.63
2022-11-20T09:05:12.191Z,12.13
2022-11-20T09:07:38.780Z,13.00
2022-11-20T09:12:54.871Z,12.50
2022-11-20T09:15:22.446Z,13.35
2022-11-20T09:17:52.563Z,12.75
2022-11-20T09:20:19.208Z,12.18
2022-11-20T09:22:45.850Z,12.52
2022-11-20T09:25:12.509Z,13.27
2022-11-20T09:27:39.129Z,14.18
2022-11-20T09:30:08.616Z,13.23
2022-11-20T09:32:35.252Z,12.68
2022-11-20T09:37:33.462Z,16.25
2022-11-20T09:40:00.119Z,14.50
2022-11-20T09:42:41.645Z,12.60
2022-11-20T09:45:19.679Z,12.18
2022-11-20T09:48:00.748Z,12.55
2022-11-20T09:50:32.462Z,12.48
2022-11-20T09:53:12.014Z,13.85
2022-11-20T09:55:39.564Z,12.93
2022-11-20T09:58:08.652Z,14.18
2022-11-20T10:00:38.351Z,14.32
2022-11-20T10:03:14.515Z,11.85
2022-11-20T10:05:45.908Z,10.68
2022-11-20T10:08:18.628Z,11.68
2022-11-20T10:10:52.432Z,11.82
2022-11-20T10:13:32.862Z,11.48
2022-11-20T10:16:17.981Z,14.43
2022-11-20T10:18:59.149Z,10.93
2022-11-20T10:21:37.711Z,11.52
2022-11-20T10:24:23.657Z,10.82
2022-11-20T10:27:00.135Z,11.63
2022-11-20T10:29:33.383Z,12.27
2022-11-20T10:32:05.138Z,12.07
2022-11-20T10:34:39.632Z,11.52
2022-11-20T10:37:12.875Z,11.90
2022-11-20T10:39:48.292Z,12.05
2022-11-20T10:42:23.445Z,12.35
2022-11-20T10:44:56.640Z,14.27
2022-11-20T10:47:27.312Z,15.07
2022-11-20T10:49:56.682Z,17.73
2022-11-20T10:52:33.891Z,14.50
2022-11-20T10:55:12.578Z,12.73
2022-11-20T10:57:53.100Z,12.70
2022-11-20T11:00:19.682Z,11.70
2022-11-20T11:02:49.338Z,11.32
2022-11-20T11:05:28.723Z,10.07
2022-11-20T11:07:56.730Z,11.38
2022-11-20T11:10:29.548Z,11.82
2022-11-20T11:12:56.206Z,11.10
2022-11-20T11:15:28.722Z,13.18
2022-11-20T11:17:57.024Z,12.93
2022-11-20T11:20:24.933Z,10.77
2022-11-20T11:22:53.495Z,12.05
2022-11-20T11:25:25.148Z,10.07
2022-11-20T11:27:53.756Z,10.18
2022-11-20T11:30:21.204Z,10.20
2022-11-20T11:32:48.260Z,10.30
2022-11-20T11:35:25.768Z,11.10
2022-11-20T11:37:54.779Z,10.00
2022-11-20T11:40:24.675Z,10.18
2022-11-20T11:42:55.793Z,10.32
2022-11-20T11:45:22.558Z,9.38
2022-11-20T11:47:51.258Z,9.02
2022-11-20T11:50:21.461Z,12.07
2022-11-20T11:53:09.526Z,11.68
2022-11-20T11:55:41.323Z,9.15
2022-11-20T11:58:18.027Z,9.55
2022-11-20T12:00:52.438Z,8.88
2022-11-20T12:03:22.670Z,9.20
2022-11-20T12:05:56.397Z,9.80
2022-11-20T12:08:30.963Z,8.98
2022-11-20T12:11:04.307Z,9.32
2022-11-20T12:16:05.701Z,9.23
2022-11-20T12:18:32.571Z,9.25
2022-11-20T12:21:12.972Z,10.57
2022-11-20T12:23:52.464Z,17.45
2022-11-20T12:26:31.021Z,11.05
2022-11-20T12:29:08.005Z,10.45
2022-11-20T12:31:53.854Z,10.48
2022-11-20T12:34:37.805Z,10.02
2022-11-20T12:37:13.803Z,9.88
2022-11-20T12:39:49.590Z,10.30
2022-11-20T12:42:31.957Z,11.32
2022-11-20T12:45:11.365Z,10.02
2022-11-20T12:48:00.456Z,10.88
2022-11-20T12:51:00.361Z,10.27
2022-11-20T12:53:34.324Z,13.63
2022-11-20T12:56:18.412Z,12.63
2022-11-20T12:58:55.629Z,13.05
2022-11-20T13:01:28.724Z,9.65
2022-11-20T13:03:59.764Z,9.68
2022-11-20T13:06:27.147Z,28.77
2022-11-20T13:08:55.426Z,34.58
2022-11-20T13:11:32.342Z,11.43
2022-11-20T13:14:13.825Z,14.55
2022-11-20T13:16:47.660Z,11.07
2022-11-20T13:19:16.709Z,11.80
2022-11-20T13:21:45.735Z,11.80
2022-11-20T13:24:23.875Z,11.77
2022-11-20T13:27:06.394Z,10.13
2022-11-20T13:29:34.357Z,9.98
2022-11-20T13:32:08.106Z,9.73
2022-11-20T13:34:36.202Z,11.95
2022-11-20T13:37:03.048Z,11.02
2022-11-20T13:39:32.226Z,9.73
2022-11-20T13:42:01.097Z,10.13
2022-11-20T13:44:35.587Z,10.23
2022-11-20T13:47:02.396Z,9.75
2022-11-20T13:49:33.496Z,9.60
2022-11-20T13:52:21.648Z,9.38
2022-11-20T13:55:07.909Z,9.40
2022-11-20T13:57:51.988Z,10.05
2022-11-20T14:00:21.527Z,9.45
2022-11-20T14:03:00.954Z,9.68
2022-11-20T14:05:27.896Z,10.68
2022-11-20T14:07:55.572Z,10.00
2022-11-20T14:10:31.099Z,10.27
2022-11-20T14:12:58.895Z,24.52
2022-11-20T14:15:29.824Z,19.75
2022-11-20T14:17:57.006Z,11.23
2022-11-20T14:20:26.896Z,12.10
2022-11-20T14:22:55.268Z,12.25
2022-11-20T14:25:23.253Z,14.48
2022-11-20T14:27:53.842Z,10.85
2022-11-20T14:30:23.255Z,11.05
2022-11-20T14:32:54.136Z,10.52
2022-11-20T14:35:24.887Z,9.27
2022-11-20T14:37:52.459Z,9.65
2022-11-20T14:40:28.833Z,9.50
2022-11-20T14:42:56.020Z,9.88
2022-11-20T14:45:23.667Z,9.25
2022-11-20T14:47:52.949Z,9.40
2022-11-20T14:50:22.957Z,10.10
2022-11-20T14:52:55.139Z,11.02
2022-11-20T14:55:32.379Z,8.93
2022-11-20T14:58:01.143Z,9.23
2022-11-20T15:00:28.780Z,9.02
2022-11-20T15:02:57.180Z,9.82
2022-11-20T15:05:26.408Z,11.85
2022-11-20T15:08:06.962Z,10.45
2022-11-20T15:10:33.977Z,9.50
2022-11-20T15:13:08.348Z,9.13
2022-11-20T15:15:47.924Z,9.82
2022-11-20T15:18:18.757Z,8.82
2022-11-20T15:20:45.802Z,9.40
2022-11-20T15:23:14.267Z,10.05
2022-11-20T15:25:42.435Z,8.73
2022-11-20T15:28:16.887Z,9.85
2022-11-20T15:30:43.644Z,9.23
2022-11-20T15:33:11.051Z,9.38
2022-11-20T15:35:39.549Z,9.15
2022-11-20T15:38:06.231Z,9.82
2022-11-20T15:40:33.256Z,9.38
2022-11-20T15:43:00.037Z,9.10
2022-11-20T15:45:29.346Z,9.20
2022-11-20T15:47:56.231Z,9.95
2022-11-20T15:50:26.516Z,9.48
2022-11-20T15:52:54.623Z,10.38
2022-11-20T15:55:21.342Z,9.60
2022-11-20T15:57:48.000Z,8.85
2022-11-20T16:00:19.279Z,9.90
2022-11-20T16:02:50.032Z,9.48
2022-11-20T16:05:16.864Z,8.75
2022-11-20T16:07:43.609Z,9.57
2022-11-20T16:10:11.809Z,9.18
2022-11-20T16:12:38.452Z,9.35
2022-11-20T16:15:10.796Z,9.25
2022-11-20T16:17:40.076Z,9.35
2022-11-20T16:20:11.403Z,10.15
2022-11-20T16:22:38.131Z,10.25
2022-11-20T16:25:05.570Z,8.40
2022-11-20T16:27:33.689Z,9.70
2022-11-20T16:30:00.276Z,8.70
2022-11-20T16:32:27.003Z,9.45
2022-11-20T16:34:53.663Z,9.18
2022-11-20T16:37:20.335Z,9.02
2022-11-20T16:39:47.030Z,8.23
2022-11-20T16:42:13.730Z,9.38
2022-11-20T16:44:41.833Z,8.88
2022-11-20T16:47:08.694Z,8.38
2022-11-20T16:49:35.327Z,8.65
2022-11-20T16:52:02.114Z,8.75
2022-11-20T16:54:28.864Z,8.63
2022-11-20T16:56:55.617Z,8.20
2022-11-20T16:59:22.362Z,7.97
2022-11-20T17:01:50.644Z,8.18
2022-11-20T17:04:17.478Z,8.40
2022-11-20T17:06:44.594Z,8.95
2022-11-20T17:09:13.800Z,8.18
2022-11-20T17:11:40.469Z,8.23
2022-11-20T17:14:07.251Z,8.25
2022-11-20T17:16:35.328Z,8.40
2022-11-20T17:19:04.617Z,9.57
2022-11-20T17:21:31.882Z,8.43
2022-11-20T17:24:01.505Z,8.55
2022-11-20T17:26:28.244Z,8.50
2022-11-20T17:28:56.686Z,8.45
2022-11-20T17:31:23.610Z,8.23
2022-11-20T17:33:50.433Z,7.82
2022-11-20T17:36:20.170Z,7.85
2022-11-20T17:38:47.459Z,8.65
2022-11-20T17:41:15.956Z,9.07
2022-11-20T17:43:43.509Z,9.15
2022-11-20T17:46:12.405Z,8.80
2022-11-20T17:48:39.777Z,9.35
2022-11-20T17:51:06.864Z,11.40
2022-11-20T17:53:36.698Z,11.05
2022-11-20T17:56:04.091Z,9.45
2022-11-20T17:58:30.755Z,9.77
2022-11-20T18:01:04.951Z,9.55
2022-11-20T18:03:31.710Z,9.35
2022-11-20T18:05:58.324Z,9.25
2022-11-20T18:08:27.307Z,8.93
2022-11-20T18:10:55.382Z,8.50
2022-11-20T18:13:22.125Z,8.85
2022-11-20T18:15:49.049Z,9.88
2022-11-20T18:18:15.767Z,9.57
2022-11-20T18:20:42.473Z,9.63
2022-11-20T18:23:09.151Z,10.27
2022-11-20T18:25:35.850Z,9.27
2022-11-20T18:28:03.981Z,9.32
2022-11-20T18:30:30.832Z,10.45
2022-11-20T18:32:57.609Z,10.57
2022-11-20T18:35:24.444Z,10.00
2022-11-20T18:37:51.148Z,9.68
2022-11-20T18:40:17.858Z,9.88
2022-11-20T18:42:44.562Z,9.82
2022-11-20T18:45:12.728Z,10.60
2022-11-20T18:47:39.488Z,9.98
2022-11-20T18:50:08.400Z,12.32
2022-11-20T18:52:39.633Z,10.27
2022-11-20T18:55:07.997Z,10.00
2022-11-20T18:57:34.770Z,9.88
2022-11-20T19:00:07.997Z,9.90
2022-11-20T19:02:42.329Z,10.65
2022-11-20T19:05:10.470Z,9.95
2022-11-20T19:07:37.222Z,10.27
2022-11-20T19:10:04.711Z,9.85
2022-11-20T19:12:31.918Z,10.05
2022-11-20T19:14:58.553Z,13.23
2022-11-20T19:17:25.256Z,18.13
2022-11-20T19:19:53.385Z,20.05
2022-11-20T19:22:20.154Z,19.60
2022-11-20T19:24:46.981Z,16.85
2022-11-20T19:27:13.715Z,17.50
2022-11-20T19:29:40.383Z,18.35
2022-11-20T19:32:07.169Z,14.48
2022-11-20T19:34:33.824Z,13.77
2022-11-20T19:37:02.026Z,15.43
2022-11-20T19:39:28.823Z,15.88
2022-11-20T19:41:55.589Z,13.05
2022-11-20T19:44:22.334Z,12.20
2022-11-20T19:46:49.201Z,10.93
2022-11-20T19:49:15.931Z,12.50
2022-11-20T19:51:46.001Z,11.98
2022-11-20T19:54:14.734Z,11.73
2022-11-20T19:56:41.454Z,11.27
2022-11-20T19:59:08.155Z,12.40
2022-11-20T20:01:35.017Z,11.57
2022-11-20T20:04:02.011Z,12.77
2022-11-20T20:06:29.027Z,11.05
2022-11-20T20:08:57.153Z,10.35
2022-11-20T20:11:27.089Z,10.80
2022-11-20T20:13:54.106Z,10.48
2022-11-20T20:16:22.709Z,10.27
2022-11-20T20:18:49.668Z,9.75
2022-11-20T20:21:17.353Z,9.80
2022-11-20T20:23:44.493Z,9.63
2022-11-20T20:26:11.871Z,9.45
2022-11-20T20:28:39.802Z,9.90
2022-11-20T20:31:08.164Z,11.07
2022-11-20T20:33:35.737Z,10.15
2022-11-20T20:36:02.338Z,9.07
2022-11-20T20:38:28.890Z,9.25
2022-11-20T20:40:56.581Z,9.75
2022-11-20T20:43:23.274Z,9.27
2022-11-20T20:45:51.775Z,9.80
2022-11-20T20:48:20.911Z,10.68
2022-11-20T20:50:53.874Z,8.80
2022-11-20T20:53:20.522Z,9.15
2022-11-20T20:55:53.923Z,9.35
2022-11-20T20:58:20.597Z,8.43
2022-11-20T21:00:47.198Z,9.80
2022-11-20T21:03:15.279Z,9.77
2022-11-20T21:05:41.937Z,9.93
2022-11-20T21:08:08.704Z,8.88
2022-11-20T21:10:35.299Z,8.93
2022-11-20T21:13:01.863Z,9.25
2022-11-20T21:15:28.643Z,9.68
2022-11-20T21:17:55.247Z,10.95
2022-11-20T21:20:23.339Z,12.68
2022-11-20T21:22:49.893Z,10.38
2022-11-20T21:25:16.653Z,11.77
2022-11-20T21:27:43.259Z,10.68
2022-11-20T21:30:10.863Z,10.27
2022-11-20T21:32:37.427Z,10.70
2022-11-20T21:35:04.430Z,10.57
2022-11-20T21:37:34.973Z,10.35
2022-11-20T21:40:04.377Z,9.45
2022-11-20T21:42:30.987Z,9.50
2022-11-20T21:44:57.784Z,10.30
2022-11-20T21:47:24.399Z,9.43
2022-11-20T21:49:51.006Z,9.80
2022-11-20T21:52:17.598Z,10.30
2022-11-20T21:54:45.558Z,9.93
2022-11-20T21:57:12.113Z,9.13
2022-11-20T21:59:38.686Z,10.20
2022-11-20T22:02:05.365Z,8.80
2022-11-20T22:04:32.055Z,9.32
2022-11-20T22:06:58.666Z,9.70
2022-11-20T22:09:25.333Z,9.00
2022-11-20T22:11:53.257Z,9.43
2022-11-20T22:14:19.826Z,8.52
2022-11-20T22:16:46.765Z,8.65
2022-11-20T22:19:16.106Z,9.13
2022-11-20T22:21:42.690Z,8.35
2022-11-20T22:24:12.465Z,8.30
2022-11-20T22:26:40.631Z,8.73
2022-11-20T22:29:14.018Z,9.20
2022-11-20T22:31:40.945Z,9.88
2022-11-20T22:34:10.731Z,8.57
2022-11-20T22:36:37.952Z,9.68
2022-11-20T22:39:05.213Z,9.55
2022-11-20T22:41:32.209Z,8.88
2022-11-20T22:44:00.226Z,10.07
2022-11-20T22:46:30.593Z,9.13
2022-11-20T22:48:59.114Z,9.38
2022-11-20T22:51:27.848Z,9.85
2022-11-20T22:53:54.694Z,10.65
2022-11-20T22:56:21.661Z,10.70
2022-11-20T22:58:50.707Z,9.20
2022-11-20T23:01:19.180Z,9.18
2022-11-20T23:03:49.635Z,10.05
2022-11-20T23:06:17.410Z,9.57
2022-11-20T23:08:44.441Z,11.68
2022-11-20T23:11:13.346Z,10.82
2022-11-20T23:13:40.735Z,10.73
2022-11-20T23:16:09.395Z,10.00
2022-11-20T23:18:36.534Z,11.00
2022-11-20T23:21:08.613Z,10.35
2022-11-20T23:23:35.607Z,11.13
2022-11-20T23:26:02.515Z,12.18
2022-11-20T23:28:29.578Z,12.05
2022-11-20T23:30:56.418Z,11.50
2022-11-20T23:33:23.320Z,10.73
2022-11-20T23:35:50.185Z,11.68
2022-11-20T23:38:18.383Z,10.48
2022-11-20T23:40:47.148Z,12.43
2022-11-20T23:43:13.980Z,16.10
2022-11-20T23:45:40.862Z,14.00
2022-11-20T23:48:07.800Z,13.63
2022-11-20T23:50:35.034Z,12.38
2022-11-20T23:53:01.903Z,13.68
2022-11-20T23:55:30.402Z,12.30
2022-11-20T23:57:57.234Z,14.13
